createdAt,value
2017-12-24T00:02:08.031Z,13.10
2017-12-24T00:04:36.241Z,13.10
2017-12-24T00:07:03.669Z,13.10
2017-12-24T00:09:31.881Z,12.70
2017-12-24T00:11:59.318Z,12.70
2017-12-24T00:14:26.760Z,13.00
2017-12-24T00:16:54.213Z,12.70
2017-12-24T00:19:22.421Z,12.40
2017-12-24T00:21:49.854Z,12.40
2017-12-24T00:24:17.285Z,12.50
2017-12-24T00:26:45.646Z,12.60
2017-12-24T00:29:13.084Z,12.80
2017-12-24T00:31:40.516Z,13.00
2017-12-24T00:34:07.950Z,12.60
2017-12-24T00:36:36.158Z,12.60
2017-12-24T00:39:03.596Z,12.60
2017-12-24T00:41:31.942Z,12.30
2017-12-24T00:43:59.410Z,12.20
2017-12-24T00:46:26.832Z,12.40
2017-12-24T00:48:54.277Z,11.80
2017-12-24T00:51:21.729Z,12.00
2017-12-24T00:53:49.184Z,12.10
2017-12-24T00:56:16.625Z,12.20
2017-12-24T00:58:44.075Z,11.80
2017-12-24T01:01:12.450Z,12.10
2017-12-24T01:03:40.648Z,12.10
2017-12-24T01:06:08.060Z,12.10
2017-12-24T01:08:35.510Z,12.20
2017-12-24T01:11:02.939Z,12.50
2017-12-24T01:13:31.248Z,12.80
2017-12-24T01:15:58.688Z,12.80
2017-12-24T01:18:26.120Z,13.00
2017-12-24T01:20:53.568Z,12.60
2017-12-24T01:23:21.009Z,12.50
2017-12-24T01:25:48.440Z,12.90
2017-12-24T01:28:16.635Z,11.70
2017-12-24T01:30:44.832Z,12.10
2017-12-24T01:33:12.625Z,12.10
2017-12-24T01:35:40.057Z,12.50
2017-12-24T01:38:07.504Z,12.30
2017-12-24T01:40:34.946Z,12.10
2017-12-24T01:43:03.148Z,12.20
2017-12-24T01:45:30.576Z,12.20
2017-12-24T01:47:58.768Z,12.70
2017-12-24T01:50:26.198Z,12.70
2017-12-24T01:52:54.400Z,12.30
2017-12-24T01:55:21.848Z,12.30
2017-12-24T01:57:50.055Z,12.80
2017-12-24T02:00:17.482Z,12.70
2017-12-24T02:02:44.924Z,12.50
2017-12-24T02:05:12.754Z,12.20
2017-12-24T02:07:40.183Z,11.70
2017-12-24T02:10:07.660Z,12.00
2017-12-24T02:12:35.096Z,12.20
2017-12-24T02:15:02.533Z,12.50
2017-12-24T02:17:29.964Z,12.20
2017-12-24T02:19:58.176Z,12.20
2017-12-24T02:22:25.602Z,12.20
2017-12-24T02:24:53.807Z,12.50
2017-12-24T02:27:21.237Z,12.40
2017-12-24T02:29:49.432Z,11.90
2017-12-24T02:32:16.890Z,11.90
2017-12-24T02:34:45.085Z,12.10
2017-12-24T02:37:12.773Z,12.10
2017-12-24T02:39:40.213Z,12.20
2017-12-24T02:42:07.645Z,12.50
2017-12-24T02:44:35.114Z,12.60
2017-12-24T02:47:02.550Z,12.00
2017-12-24T02:49:30.771Z,11.80
2017-12-24T02:51:58.206Z,11.80
2017-12-24T02:54:25.657Z,12.10
2017-12-24T02:56:53.085Z,12.10
2017-12-24T02:59:21.276Z,12.30
2017-12-24T03:01:48.712Z,12.30
2017-12-24T03:04:17.664Z,12.00
2017-12-24T03:06:45.914Z,12.40
2017-12-24T03:09:13.344Z,12.30
2017-12-24T03:11:41.537Z,12.00
2017-12-24T03:14:08.969Z,12.00
2017-12-24T03:16:36.431Z,12.20
2017-12-24T03:19:04.643Z,12.30
2017-12-24T03:21:32.076Z,12.30
2017-12-24T03:23:59.501Z,12.30
2017-12-24T03:26:26.945Z,12.20
2017-12-24T03:28:54.373Z,12.20
2017-12-24T03:31:21.826Z,12.10
2017-12-24T03:33:49.261Z,12.50
2017-12-24T03:36:17.489Z,12.20
2017-12-24T03:38:44.924Z,12.10
2017-12-24T03:41:12.940Z,12.60
2017-12-24T03:43:40.377Z,12.90
2017-12-24T03:46:08.549Z,12.70
2017-12-24T03:48:36.013Z,12.80
2017-12-24T03:51:03.441Z,12.30
2017-12-24T03:53:30.880Z,12.60
2017-12-24T03:55:58.346Z,12.90
2017-12-24T03:58:25.771Z,12.20
2017-12-24T04:00:53.964Z,12.50
2017-12-24T04:03:21.402Z,12.50
2017-12-24T04:05:49.604Z,12.50
2017-12-24T04:08:17.029Z,12.50
2017-12-24T04:10:45.237Z,12.40
2017-12-24T04:13:13.056Z,12.40
2017-12-24T04:15:40.514Z,12.40
2017-12-24T04:18:07.944Z,12.20
2017-12-24T04:20:35.393Z,12.50
2017-12-24T04:23:02.831Z,12.00
2017-12-24T04:25:30.265Z,12.10
2017-12-24T04:27:58.485Z,13.00
2017-12-24T04:30:25.901Z,12.90
2017-12-24T04:32:54.101Z,12.50
2017-12-24T04:35:21.537Z,12.40
2017-12-24T04:37:49.724Z,12.10
2017-12-24T04:40:17.178Z,12.10
2017-12-24T04:42:44.618Z,12.10
2017-12-24T04:45:13.729Z,12.30
2017-12-24T04:47:41.163Z,12.30
2017-12-24T04:50:08.593Z,11.60
2017-12-24T04:52:36.053Z,12.20
2017-12-24T04:55:03.481Z,12.40
2017-12-24T04:57:30.917Z,12.60
2017-12-24T04:59:58.349Z,12.50
2017-12-24T05:02:25.791Z,12.80
2017-12-24T05:04:53.224Z,12.60
2017-12-24T05:07:20.656Z,12.40
2017-12-24T05:09:48.092Z,12.90
2017-12-24T05:12:16.292Z,12.80
2017-12-24T05:14:43.711Z,12.80
2017-12-24T05:17:11.982Z,13.10
2017-12-24T05:19:39.344Z,13.10
2017-12-24T05:22:07.564Z,12.90
2017-12-24T05:24:34.991Z,12.90
2017-12-24T05:27:03.197Z,12.30
2017-12-24T05:29:30.625Z,12.30
2017-12-24T05:31:58.833Z,12.50
2017-12-24T05:34:26.266Z,12.50
2017-12-24T05:36:53.706Z,12.10
2017-12-24T05:39:22.681Z,12.10
2017-12-24T05:41:50.122Z,12.10
2017-12-24T05:44:17.556Z,12.40
2017-12-24T05:46:44.987Z,12.80
2017-12-24T05:49:13.205Z,13.00
2017-12-24T05:51:40.653Z,12.50
2017-12-24T05:54:08.765Z,12.50
2017-12-24T05:56:36.204Z,12.40
2017-12-24T05:59:03.641Z,12.30
2017-12-24T06:01:31.085Z,12.40
2017-12-24T06:03:59.503Z,12.30
2017-12-24T06:06:26.942Z,12.50
2017-12-24T06:08:54.387Z,12.50
2017-12-24T06:11:21.826Z,12.90
2017-12-24T06:13:50.017Z,12.70
2017-12-24T06:16:17.501Z,12.70
2017-12-24T06:18:44.932Z,12.60
2017-12-24T06:21:13.307Z,12.20
2017-12-24T06:23:40.764Z,12.30
2017-12-24T06:26:08.189Z,12.50
2017-12-24T06:28:37.041Z,12.10
2017-12-24T06:31:04.501Z,12.00
2017-12-24T06:33:31.940Z,12.00
2017-12-24T06:35:59.381Z,11.70
2017-12-24T06:38:26.818Z,11.70
2017-12-24T06:40:54.253Z,12.40
2017-12-24T06:43:22.477Z,12.10
2017-12-24T06:45:50.841Z,12.10
2017-12-24T06:48:19.012Z,12.60
2017-12-24T06:50:46.471Z,12.50
2017-12-24T06:53:13.914Z,12.70
2017-12-24T06:55:42.118Z,12.60
2017-12-24T06:58:09.556Z,12.70
2017-12-24T07:00:36.986Z,12.60
2017-12-24T07:03:04.419Z,12.00
2017-12-24T07:05:31.855Z,12.10
2017-12-24T07:07:59.285Z,12.30
2017-12-24T07:10:26.729Z,12.10
2017-12-24T07:12:55.609Z,12.00
2017-12-24T07:15:23.801Z,11.80
2017-12-24T07:17:51.239Z,11.70
2017-12-24T07:20:19.445Z,11.90
2017-12-24T07:22:46.955Z,11.90
2017-12-24T07:25:14.373Z,12.30
2017-12-24T07:27:41.818Z,12.10
2017-12-24T07:30:09.256Z,12.20
2017-12-24T07:32:37.466Z,11.90
2017-12-24T07:35:04.898Z,11.90
2017-12-24T07:37:32.338Z,11.50
2017-12-24T07:40:00.533Z,12.30
2017-12-24T07:42:27.983Z,12.20
2017-12-24T07:44:55.447Z,12.10
2017-12-24T07:47:22.882Z,12.10
2017-12-24T07:49:51.073Z,11.90
2017-12-24T07:52:18.509Z,11.80
2017-12-24T07:54:45.945Z,11.80
2017-12-24T07:57:13.582Z,12.10
2017-12-24T07:59:41.745Z,11.50
2017-12-24T08:02:09.178Z,11.50
2017-12-24T08:04:37.388Z,11.70
2017-12-24T08:07:04.817Z,11.70
2017-12-24T08:09:32.256Z,12.00
2017-12-24T08:12:00.458Z,11.90
2017-12-24T08:14:27.901Z,11.90
2017-12-24T08:16:55.329Z,12.30
2017-12-24T08:19:22.780Z,11.80
2017-12-24T08:21:50.232Z,12.10
2017-12-24T08:24:17.672Z,11.60
2017-12-24T08:26:45.076Z,11.70
2017-12-24T08:29:14.198Z,11.60
2017-12-24T08:31:41.628Z,11.50
2017-12-24T08:34:09.834Z,12.10
2017-12-24T08:36:37.272Z,12.00
2017-12-24T08:39:05.465Z,11.10
2017-12-24T08:41:33.629Z,11.00
2017-12-24T08:44:01.078Z,11.60
2017-12-24T08:46:29.260Z,11.80
2017-12-24T08:48:56.704Z,11.80
2017-12-24T08:51:24.959Z,12.20
2017-12-24T08:53:52.388Z,12.10
2017-12-24T08:56:19.825Z,11.90
2017-12-24T08:58:47.334Z,12.30
2017-12-24T09:01:14.774Z,11.70
2017-12-24T09:03:42.232Z,11.50
2017-12-24T09:06:09.672Z,12.20
2017-12-24T09:08:37.088Z,11.80
2017-12-24T09:11:04.534Z,11.90
2017-12-24T09:13:32.759Z,11.90
2017-12-24T09:16:00.187Z,11.90
2017-12-24T09:18:27.656Z,12.20
2017-12-24T09:20:55.848Z,12.00
2017-12-24T09:23:23.260Z,11.90
2017-12-24T09:25:51.459Z,12.00
2017-12-24T09:28:18.899Z,12.00
2017-12-24T09:30:47.110Z,12.10
2017-12-24T09:33:14.563Z,12.10
2017-12-24T09:35:42.019Z,11.70
2017-12-24T09:38:09.424Z,12.00
2017-12-24T09:40:36.895Z,12.30
2017-12-24T09:43:05.108Z,12.20
2017-12-24T09:45:32.536Z,12.20
2017-12-24T09:48:00.739Z,12.30
2017-12-24T09:50:28.168Z,12.30
2017-12-24T09:52:56.381Z,11.90
2017-12-24T09:55:23.814Z,11.90
2017-12-24T09:57:51.245Z,12.20
2017-12-24T10:00:19.454Z,12.40
2017-12-24T10:02:46.875Z,12.40
2017-12-24T10:05:15.086Z,12.30
2017-12-24T10:07:42.617Z,12.30
2017-12-24T10:10:10.086Z,12.30
2017-12-24T10:12:37.542Z,12.50
2017-12-24T10:15:05.754Z,12.00
2017-12-24T10:17:33.202Z,12.00
2017-12-24T10:20:00.649Z,12.50
2017-12-24T10:22:28.085Z,12.50
2017-12-24T10:24:56.278Z,12.40
2017-12-24T10:27:23.710Z,12.30
2017-12-24T10:29:51.924Z,12.80
2017-12-24T10:32:19.353Z,12.70
2017-12-24T10:34:46.801Z,12.50
2017-12-24T10:37:15.636Z,12.70
2017-12-24T10:39:43.126Z,12.70
2017-12-24T10:42:10.561Z,12.60
2017-12-24T10:44:38.000Z,11.90
2017-12-24T10:47:05.421Z,11.90
2017-12-24T10:49:33.634Z,11.80
2017-12-24T10:52:01.092Z,11.70
2017-12-24T10:54:28.537Z,12.10
2017-12-24T10:56:56.981Z,11.90
2017-12-24T10:59:24.413Z,11.90
2017-12-24T11:01:51.866Z,12.20
2017-12-24T11:04:19.289Z,12.20
2017-12-24T11:06:46.759Z,11.80
2017-12-24T11:09:14.180Z,11.70
2017-12-24T11:11:42.381Z,12.00
2017-12-24T11:14:09.805Z,12.00
2017-12-24T11:16:38.053Z,12.30
2017-12-24T11:19:05.487Z,11.70
2017-12-24T11:21:32.921Z,12.10
2017-12-24T11:24:00.352Z,12.40
2017-12-24T11:26:28.575Z,11.50
2017-12-24T11:28:56.014Z,11.50
2017-12-24T11:31:23.453Z,11.90
2017-12-24T11:33:51.666Z,12.30
2017-12-24T11:36:19.117Z,12.30
2017-12-24T11:38:46.529Z,12.10
2017-12-24T11:41:14.735Z,11.90
2017-12-24T11:43:42.168Z,11.90
2017-12-24T11:46:10.396Z,11.80
2017-12-24T11:48:37.855Z,11.80
2017-12-24T11:51:05.276Z,12.30
2017-12-24T11:53:32.757Z,12.60
2017-12-24T11:56:00.181Z,11.80
2017-12-24T11:58:28.425Z,12.20
2017-12-24T12:00:55.894Z,12.10
2017-12-24T12:03:23.344Z,12.10
2017-12-24T12:05:50.792Z,12.30
2017-12-24T12:08:18.221Z,11.80
2017-12-24T12:10:45.659Z,12.10
2017-12-24T12:13:14.009Z,12.50
2017-12-24T12:15:42.228Z,12.50
2017-12-24T12:18:09.669Z,12.40
2017-12-24T12:20:37.119Z,12.90
2017-12-24T12:23:05.335Z,12.10
2017-12-24T12:25:32.754Z,12.00
2017-12-24T12:28:00.387Z,11.70
2017-12-24T12:30:28.601Z,12.20
2017-12-24T12:32:56.053Z,12.00
2017-12-24T12:35:24.247Z,12.10
2017-12-24T12:37:51.678Z,12.10
2017-12-24T12:40:19.889Z,12.70
2017-12-24T12:42:47.322Z,12.70
2017-12-24T12:45:14.758Z,11.70
2017-12-24T12:47:42.965Z,13.00
2017-12-24T12:50:10.410Z,13.00
2017-12-24T12:52:37.853Z,12.70
2017-12-24T12:55:06.057Z,11.70
2017-12-24T12:57:33.533Z,11.60
2017-12-24T13:00:00.995Z,12.30
2017-12-24T13:02:28.434Z,11.70
2017-12-24T13:04:55.864Z,12.10
2017-12-24T13:07:23.307Z,12.20
2017-12-24T13:09:52.233Z,12.10
2017-12-24T13:12:19.653Z,12.10
2017-12-24T13:14:47.871Z,12.40
2017-12-24T13:17:15.289Z,12.40
2017-12-24T13:19:43.489Z,11.60
2017-12-24T13:22:10.933Z,11.50
2017-12-24T13:24:39.131Z,12.30
2017-12-24T13:27:06.569Z,12.30
2017-12-24T13:29:34.002Z,12.40
2017-12-24T13:32:01.439Z,12.20
2017-12-24T13:34:28.873Z,12.60
2017-12-24T13:36:56.320Z,12.00
2017-12-24T13:39:23.754Z,12.40
2017-12-24T13:41:51.214Z,12.40
2017-12-24T13:44:18.646Z,12.40
2017-12-24T13:46:46.849Z,12.00
2017-12-24T13:49:14.293Z,11.90
2017-12-24T13:51:42.491Z,12.10
2017-12-24T13:54:09.922Z,12.00
2017-12-24T13:56:38.121Z,11.90
2017-12-24T13:59:05.549Z,11.90
2017-12-24T14:01:33.758Z,12.20
2017-12-24T14:04:01.189Z,12.20
2017-12-24T14:06:29.429Z,12.20
2017-12-24T14:08:56.847Z,12.20
2017-12-24T14:11:24.284Z,12.40
2017-12-24T14:13:52.477Z,12.20
2017-12-24T14:16:19.910Z,12.20
2017-12-24T14:18:48.105Z,12.60
2017-12-24T14:21:15.549Z,12.60
2017-12-24T14:23:42.972Z,12.60
2017-12-24T14:26:10.412Z,12.50
2017-12-24T14:28:37.857Z,12.10
2017-12-24T14:31:05.274Z,12.60
2017-12-24T14:33:33.482Z,11.90
2017-12-24T14:36:01.856Z,11.90
2017-12-24T14:38:29.289Z,12.20
2017-12-24T14:40:56.774Z,12.20
2017-12-24T14:43:24.205Z,11.90
2017-12-24T14:45:52.416Z,12.40
2017-12-24T14:48:19.842Z,12.30
2017-12-24T14:50:48.042Z,11.90
2017-12-24T14:53:16.177Z,11.90
2017-12-24T14:55:44.369Z,12.50
2017-12-24T14:58:11.806Z,12.50
2017-12-24T15:00:40.022Z,11.90
2017-12-24T15:03:07.462Z,11.90
2017-12-24T15:05:34.909Z,12.00
2017-12-24T15:08:02.350Z,12.10
2017-12-24T15:10:30.560Z,11.70
2017-12-24T15:12:58.041Z,11.70
2017-12-24T15:15:25.938Z,11.90
2017-12-24T15:17:53.379Z,12.10
2017-12-24T15:20:20.809Z,12.10
2017-12-24T15:22:48.264Z,12.00
2017-12-24T15:25:15.695Z,12.50
2017-12-24T15:27:43.898Z,12.00
2017-12-24T15:30:12.136Z,12.00
2017-12-24T15:32:40.333Z,12.20
2017-12-24T15:35:07.766Z,12.20
2017-12-24T15:37:35.975Z,12.20
2017-12-24T15:40:03.410Z,12.10
2017-12-24T15:42:31.618Z,12.30
2017-12-24T15:44:59.057Z,12.30
2017-12-24T15:47:26.489Z,11.90
2017-12-24T15:49:54.701Z,12.10
2017-12-24T15:52:22.140Z,12.10
2017-12-24T15:54:49.564Z,12.40
2017-12-24T15:57:17.009Z,12.40
2017-12-24T15:59:44.449Z,12.10
2017-12-24T16:02:11.886Z,12.20
2017-12-24T16:04:39.321Z,11.50
2017-12-24T16:07:07.558Z,12.20
2017-12-24T16:09:34.997Z,12.20
2017-12-24T16:12:02.441Z,12.30
2017-12-24T16:14:29.890Z,11.70
2017-12-24T16:16:57.321Z,12.40
2017-12-24T16:19:25.524Z,12.30
2017-12-24T16:21:52.966Z,12.30
2017-12-24T16:24:20.424Z,12.50
2017-12-24T16:26:47.891Z,12.70
2017-12-24T16:29:15.328Z,12.70
2017-12-24T16:31:43.530Z,12.60
2017-12-24T16:34:10.977Z,12.60
2017-12-24T16:36:38.415Z,12.70
2017-12-24T16:39:06.646Z,12.40
2017-12-24T16:41:34.065Z,12.30
2017-12-24T16:44:01.566Z,12.70
2017-12-24T16:46:29.733Z,12.40
2017-12-24T16:48:57.188Z,12.40
2017-12-24T16:51:24.640Z,12.10
2017-12-24T16:53:52.060Z,12.30
2017-12-24T16:56:19.535Z,12.40
2017-12-24T16:58:47.910Z,12.50
2017-12-24T17:01:15.350Z,12.20
2017-12-24T17:03:42.806Z,12.20
2017-12-24T17:06:11.026Z,12.10
2017-12-24T17:08:38.467Z,12.00
2017-12-24T17:11:05.906Z,11.60
2017-12-24T17:13:33.411Z,11.90
2017-12-24T17:16:00.797Z,11.90
2017-12-24T17:18:29.531Z,11.70
2017-12-24T17:20:57.664Z,11.60
2017-12-24T17:23:25.899Z,11.80
2017-12-24T17:25:53.812Z,11.80
2017-12-24T17:28:22.020Z,12.30
2017-12-24T17:30:49.469Z,12.30
2017-12-24T17:33:16.904Z,12.30
2017-12-24T17:35:45.098Z,12.40
2017-12-24T17:38:13.341Z,12.30
2017-12-24T17:40:40.785Z,11.90
2017-12-24T17:43:08.229Z,12.10
2017-12-24T17:45:35.675Z,12.20
2017-12-24T17:48:03.104Z,12.50
2017-12-24T17:50:30.546Z,12.70
2017-12-24T17:52:58.756Z,12.50
2017-12-24T17:55:26.178Z,12.50
2017-12-24T17:57:54.381Z,11.80
2017-12-24T18:00:21.827Z,11.80
2017-12-24T18:02:49.250Z,12.20
2017-12-24T18:05:16.672Z,12.40
2017-12-24T18:07:44.869Z,12.50
2017-12-24T18:10:12.311Z,12.50
2017-12-24T18:12:39.733Z,12.60
2017-12-24T18:15:07.175Z,12.40
2017-12-24T18:17:35.365Z,12.10
2017-12-24T18:20:02.802Z,12.10
2017-12-24T18:22:30.992Z,12.70
2017-12-24T18:24:58.434Z,12.70
2017-12-24T18:27:26.646Z,12.80
2017-12-24T18:29:54.088Z,12.80
2017-12-24T18:32:21.546Z,12.70
2017-12-24T18:34:48.978Z,12.50
2017-12-24T18:37:17.191Z,12.50
2017-12-24T18:39:44.635Z,12.50
2017-12-24T18:42:12.107Z,12.60
2017-12-24T18:44:40.478Z,12.50
2017-12-24T18:47:07.920Z,12.50
2017-12-24T18:49:35.350Z,12.50
2017-12-24T18:52:02.788Z,12.40
2017-12-24T18:54:30.265Z,12.40
2017-12-24T18:56:57.701Z,11.90
2017-12-24T18:59:25.162Z,12.20
2017-12-24T19:01:52.595Z,12.30
2017-12-24T19:04:20.046Z,12.40
2017-12-24T19:06:47.474Z,11.80
2017-12-24T19:09:15.207Z,11.90
2017-12-24T19:11:42.638Z,12.30
2017-12-24T19:14:10.078Z,12.20
2017-12-24T19:16:37.515Z,12.30
2017-12-24T19:19:04.970Z,11.80
2017-12-24T19:21:33.168Z,12.10
2017-12-24T19:24:00.608Z,12.10
2017-12-24T19:26:28.037Z,12.50
2017-12-24T19:28:55.471Z,12.50
2017-12-24T19:31:22.923Z,12.30
2017-12-24T19:33:50.360Z,12.60
2017-12-24T19:36:17.801Z,12.80
2017-12-24T19:38:45.225Z,12.60
2017-12-24T19:41:13.420Z,12.40
2017-12-24T19:43:40.858Z,12.40
2017-12-24T19:46:09.064Z,12.60
2017-12-24T19:48:36.501Z,12.50
2017-12-24T19:51:04.733Z,12.50
2017-12-24T19:53:32.178Z,12.50
2017-12-24T19:55:59.635Z,12.20
2017-12-24T19:58:27.043Z,11.90
2017-12-24T20:00:55.249Z,12.50
2017-12-24T20:03:22.676Z,12.40
2017-12-24T20:05:50.876Z,12.60
2017-12-24T20:08:18.314Z,12.60
2017-12-24T20:10:46.530Z,11.60
2017-12-24T20:13:13.978Z,11.50
2017-12-24T20:15:41.407Z,11.60
2017-12-24T20:18:09.604Z,11.60
2017-12-24T20:20:37.584Z,11.60
2017-12-24T20:23:05.017Z,12.10
2017-12-24T20:25:32.458Z,11.90
2017-12-24T20:28:00.662Z,11.90
2017-12-24T20:30:28.101Z,11.80
2017-12-24T20:32:56.320Z,12.20
2017-12-24T20:35:23.764Z,12.10
2017-12-24T20:37:51.997Z,11.70
2017-12-24T20:40:19.433Z,11.70
2017-12-24T20:42:46.867Z,12.00
2017-12-24T20:45:15.239Z,12.00
2017-12-24T20:47:42.672Z,12.40
2017-12-24T20:50:10.129Z,12.30
2017-12-24T20:52:37.584Z,11.30
2017-12-24T20:55:05.041Z,11.40
2017-12-24T20:57:33.293Z,11.60
2017-12-24T21:00:00.735Z,11.70
2017-12-24T21:02:28.163Z,11.70
2017-12-24T21:04:55.606Z,11.90
2017-12-24T21:07:23.069Z,11.90
2017-12-24T21:09:50.496Z,11.40
2017-12-24T21:12:18.700Z,12.00
2017-12-24T21:14:46.322Z,12.00
2017-12-24T21:17:15.450Z,12.10
2017-12-24T21:19:42.886Z,12.10
2017-12-24T21:22:11.092Z,12.20
2017-12-24T21:24:38.556Z,12.20
2017-12-24T21:27:05.994Z,12.40
2017-12-24T21:29:33.431Z,12.10
2017-12-24T21:32:01.635Z,12.00
2017-12-24T21:34:29.061Z,12.00
2017-12-24T21:36:57.288Z,11.70
2017-12-24T21:39:24.730Z,11.60
2017-12-24T21:41:52.171Z,11.40
2017-12-24T21:44:19.605Z,11.40
2017-12-24T21:46:47.824Z,11.60
2017-12-24T21:49:15.506Z,11.60
2017-12-24T21:51:42.982Z,11.70
2017-12-24T21:54:10.442Z,11.60
2017-12-24T21:56:37.930Z,11.80
2017-12-24T21:59:08.568Z,11.50
2017-12-24T22:01:36.794Z,11.90
2017-12-24T22:04:04.222Z,11.90
2017-12-24T22:06:31.780Z,11.90
2017-12-24T22:08:59.211Z,11.50
2017-12-24T22:11:27.440Z,11.80
2017-12-24T22:13:54.889Z,11.70
2017-12-24T22:16:22.343Z,11.80
2017-12-24T22:18:49.783Z,11.70
2017-12-24T22:21:17.251Z,11.80
2017-12-24T22:23:44.676Z,12.40
2017-12-24T22:26:12.892Z,12.20
2017-12-24T22:28:40.341Z,12.10
2017-12-24T22:31:07.805Z,11.50
2017-12-24T22:33:35.225Z,11.90
2017-12-24T22:36:02.662Z,12.10
2017-12-24T22:38:30.100Z,12.10
2017-12-24T22:40:57.539Z,12.40
2017-12-24T22:43:24.991Z,11.80
2017-12-24T22:45:52.429Z,11.50
2017-12-24T22:48:19.860Z,11.10
2017-12-24T22:50:48.073Z,11.80
2017-12-24T22:53:15.671Z,11.70
2017-12-24T22:55:43.097Z,12.20
2017-12-24T22:58:10.533Z,12.10
2017-12-24T23:00:38.002Z,12.40
2017-12-24T23:03:05.448Z,12.10
2017-12-24T23:05:32.882Z,12.40
2017-12-24T23:08:01.104Z,12.40
2017-12-24T23:10:28.520Z,12.40
2017-12-24T23:12:57.253Z,11.90
2017-12-24T23:15:24.691Z,11.90
2017-12-24T23:17:52.125Z,12.30
2017-12-24T23:20:20.357Z,12.10
2017-12-24T23:22:47.788Z,12.10
2017-12-24T23:25:15.792Z,12.50
2017-12-24T23:27:43.235Z,11.90
2017-12-24T23:30:10.670Z,11.60
2017-12-24T23:32:38.117Z,11.90
2017-12-24T23:35:05.549Z,12.10
2017-12-24T23:37:33.762Z,12.20
2017-12-24T23:40:01.185Z,12.20
2017-12-24T23:42:29.609Z,11.90
2017-12-24T23:44:57.047Z,11.90
2017-12-24T23:47:24.492Z,12.30
2017-12-24T23:49:51.941Z,12.50
2017-12-24T23:52:20.153Z,12.50
2017-12-24T23:54:47.588Z,12.50
2017-12-24T23:57:15.804Z,12.30
2017-12-24T23:59:43.237Z,11.90
